sensor_id;sensor_type;location;lat;lon;timestamp;pressure;altitude;pressure_sealevel;temperature;humidity
77288;BME280;66345;42.694;23.346;2023-03-13T00:01:42;95774.00;;;2.48;51.26
77288;BME280;66345;42.694;23.346;2023-03-13T00:04:09;95783.97;;;2.64;51.11
77288;BME280;66345;42.694;23.346;2023-03-13T00:06:36;95782.28;;;2.54;51.02
77288;BME280;66345;42.694;23.346;2023-03-13T00:09:05;95772.16;;;2.39;51.58
77288;BME280;66345;42.694;23.346;2023-03-13T00:11:32;95778.53;;;2.46;50.68
77288;BME280;66345;42.694;23.346;2023-03-13T00:13:59;95778.16;;;2.51;51.04
77288;BME280;66345;42.694;23.346;2023-03-13T00:16:28;95789.69;;;2.48;51.14
77288;BME280;66345;42.694;23.346;2023-03-13T00:18:55;95781.56;;;2.42;51.60
77288;BME280;66345;42.694;23.346;2023-03-13T00:21:23;95791.25;;;2.51;50.68
77288;BME280;66345;42.694;23.346;2023-03-13T00:23:50;95793.16;;;2.49;51.20
77288;BME280;66345;42.694;23.346;2023-03-13T00:26:18;95798.09;;;2.42;51.85
77288;BME280;66345;42.694;23.346;2023-03-13T00:28:44;95802.75;;;2.39;51.81
77288;BME280;66345;42.694;23.346;2023-03-13T00:31:24;95809.75;;;2.29;51.79
77288;BME280;66345;42.694;23.346;2023-03-13T00:33:52;95799.16;;;2.30;52.27
77288;BME280;66345;42.694;23.346;2023-03-13T00:36:20;95802.72;;;2.29;52.20
77288;BME280;66345;42.694;23.346;2023-03-13T00:38:47;95801.59;;;2.22;52.02
77288;BME280;66345;42.694;23.346;2023-03-13T00:41:15;95800.53;;;2.34;51.95
77288;BME280;66345;42.694;23.346;2023-03-13T00:43:42;95804.81;;;2.35;51.40
77288;BME280;66345;42.694;23.346;2023-03-13T00:46:09;95804.69;;;2.37;51.83
77288;BME280;66345;42.694;23.346;2023-03-13T00:48:35;95803.88;;;2.36;51.98
77288;BME280;66345;42.694;23.346;2023-03-13T00:51:02;95795.03;;;2.37;51.67
77288;BME280;66345;42.694;23.346;2023-03-13T00:53:28;95796.97;;;2.35;50.87
77288;BME280;66345;42.694;23.346;2023-03-13T00:58:29;95791.94;;;2.22;52.27
77288;BME280;66345;42.694;23.346;2023-03-13T01:00:55;95788.94;;;2.27;52.42
77288;BME280;66345;42.694;23.346;2023-03-13T01:03:22;95794.03;;;2.29;51.61
77288;BME280;66345;42.694;23.346;2023-03-13T01:05:57;95788.66;;;2.30;51.29
77288;BME280;66345;42.694;23.346;2023-03-13T01:08:23;95794.94;;;2.18;52.19
77288;BME280;66345;42.694;23.346;2023-03-13T01:10:49;95788.19;;;2.15;52.46
77288;BME280;66345;42.694;23.346;2023-03-13T01:13:15;95792.72;;;1.92;52.71
77288;BME280;66345;42.694;23.346;2023-03-13T01:15:40;95788.38;;;2.03;52.70
77288;BME280;66345;42.694;23.346;2023-03-13T01:18:05;95791.72;;;2.05;52.63
77288;BME280;66345;42.694;23.346;2023-03-13T01:20:31;95788.56;;;2.11;51.98
77288;BME280;66345;42.694;23.346;2023-03-13T01:22:57;95794.25;;;1.95;53.17
77288;BME280;66345;42.694;23.346;2023-03-13T01:25:22;95786.03;;;2.00;52.53
77288;BME280;66345;42.694;23.346;2023-03-13T01:27:47;95793.28;;;1.96;53.16
77288;BME280;66345;42.694;23.346;2023-03-13T01:30:13;95794.88;;;2.08;52.62
77288;BME280;66345;42.694;23.346;2023-03-13T01:32:38;95800.59;;;1.92;52.98
77288;BME280;66345;42.694;23.346;2023-03-13T01:35:04;95801.47;;;2.03;52.77
77288;BME280;66345;42.694;23.346;2023-03-13T01:37:31;95799.34;;;2.17;52.08
77288;BME280;66345;42.694;23.346;2023-03-13T01:39:56;95800.00;;;2.10;52.54
77288;BME280;66345;42.694;23.346;2023-03-13T01:42:21;95814.34;;;2.15;52.29
77288;BME280;66345;42.694;23.346;2023-03-13T01:44:55;95812.59;;;2.26;52.66
77288;BME280;66345;42.694;23.346;2023-03-13T01:47:22;95813.53;;;2.15;52.21
77288;BME280;66345;42.694;23.346;2023-03-13T01:49:48;95813.25;;;2.18;52.94
77288;BME280;66345;42.694;23.346;2023-03-13T01:52:25;95821.28;;;2.26;51.83
77288;BME280;66345;42.694;23.346;2023-03-13T01:55:05;95808.44;;;2.13;52.67
77288;BME280;66345;42.694;23.346;2023-03-13T01:57:38;95808.81;;;2.09;52.60
77288;BME280;66345;42.694;23.346;2023-03-13T02:00:09;95810.47;;;2.10;52.94
77288;BME280;66345;42.694;23.346;2023-03-13T02:02:37;95813.59;;;2.04;53.66
77288;BME280;66345;42.694;23.346;2023-03-13T02:05:05;95826.28;;;1.87;53.76
77288;BME280;66345;42.694;23.346;2023-03-13T02:07:47;95813.84;;;1.80;54.66
77288;BME280;66345;42.694;23.346;2023-03-13T02:10:15;95806.41;;;1.75;55.24
77288;BME280;66345;42.694;23.346;2023-03-13T02:12:42;95815.72;;;1.57;55.59
77288;BME280;66345;42.694;23.346;2023-03-13T02:15:12;95827.28;;;1.54;56.25
77288;BME280;66345;42.694;23.346;2023-03-13T02:17:40;95827.84;;;1.58;56.38
77288;BME280;66345;42.694;23.346;2023-03-13T02:20:07;95833.84;;;1.49;56.88
77288;BME280;66345;42.694;23.346;2023-03-13T02:27:56;95842.22;;;1.31;57.28
77288;BME280;66345;42.694;23.346;2023-03-13T02:30:22;95855.56;;;1.17;57.86
77288;BME280;66345;42.694;23.346;2023-03-13T02:32:48;95847.59;;;1.19;57.61
77288;BME280;66345;42.694;23.346;2023-03-13T02:35:16;95857.59;;;1.14;58.03
77288;BME280;66345;42.694;23.346;2023-03-13T02:37:46;95867.56;;;1.08;57.61
77288;BME280;66345;42.694;23.346;2023-03-13T02:40:15;95871.72;;;1.11;58.22
77288;BME280;66345;42.694;23.346;2023-03-13T02:42:43;95878.75;;;0.99;58.56
77288;BME280;66345;42.694;23.346;2023-03-13T02:45:13;95877.56;;;0.92;58.57
77288;BME280;66345;42.694;23.346;2023-03-13T02:47:38;95883.28;;;0.86;58.79
77288;BME280;66345;42.694;23.346;2023-03-13T02:50:04;95894.56;;;0.87;58.59
77288;BME280;66345;42.694;23.346;2023-03-13T02:52:35;95904.63;;;0.80;59.15
77288;BME280;66345;42.694;23.346;2023-03-13T02:55:11;95901.19;;;0.91;58.95
77288;BME280;66345;42.694;23.346;2023-03-13T02:57:38;95895.13;;;0.90;59.07
77288;BME280;66345;42.694;23.346;2023-03-13T03:00:05;95896.56;;;0.83;59.64
77288;BME280;66345;42.694;23.346;2023-03-13T03:02:31;95886.97;;;0.83;59.06
77288;BME280;66345;42.694;23.346;2023-03-13T03:04:56;95894.56;;;0.87;58.15
77288;BME280;66345;42.694;23.346;2023-03-13T03:07:22;95893.00;;;0.73;58.43
77288;BME280;66345;42.694;23.346;2023-03-13T03:09:47;95889.06;;;0.67;59.00
77288;BME280;66345;42.694;23.346;2023-03-13T03:12:13;95894.44;;;0.77;59.15
77288;BME280;66345;42.694;23.346;2023-03-13T03:14:38;95884.47;;;0.71;59.25
77288;BME280;66345;42.694;23.346;2023-03-13T03:17:04;95905.09;;;0.74;59.16
77288;BME280;66345;42.694;23.346;2023-03-13T03:19:30;95920.31;;;0.69;59.23
77288;BME280;66345;42.694;23.346;2023-03-13T03:21:55;95917.59;;;0.70;58.94
77288;BME280;66345;42.694;23.346;2023-03-13T03:24:20;95921.38;;;0.55;59.57
77288;BME280;66345;42.694;23.346;2023-03-13T03:26:46;95928.34;;;0.43;59.97
77288;BME280;66345;42.694;23.346;2023-03-13T03:29:11;95931.56;;;0.47;59.46
77288;BME280;66345;42.694;23.346;2023-03-13T03:31:37;95932.03;;;0.52;60.11
77288;BME280;66345;42.694;23.346;2023-03-13T03:34:02;95928.38;;;0.54;60.12
77288;BME280;66345;42.694;23.346;2023-03-13T03:36:28;95925.75;;;0.54;59.30
77288;BME280;66345;42.694;23.346;2023-03-13T03:38:53;95931.66;;;0.45;59.77
77288;BME280;66345;42.694;23.346;2023-03-13T03:41:19;95941.78;;;0.61;59.53
77288;BME280;66345;42.694;23.346;2023-03-13T03:43:45;95934.53;;;0.53;59.90
77288;BME280;66345;42.694;23.346;2023-03-13T03:46:12;95952.25;;;0.61;59.64
77288;BME280;66345;42.694;23.346;2023-03-13T03:48:38;95960.41;;;0.57;59.45
77288;BME280;66345;42.694;23.346;2023-03-13T03:51:04;95969.03;;;0.35;60.40
77288;BME280;66345;42.694;23.346;2023-03-13T03:53:30;95962.25;;;0.32;60.60
77288;BME280;66345;42.694;23.346;2023-03-13T03:55:57;95959.78;;;0.31;60.88
77288;BME280;66345;42.694;23.346;2023-03-13T03:58:22;95965.94;;;0.41;60.20
77288;BME280;66345;42.694;23.346;2023-03-13T04:00:48;95966.66;;;0.43;60.33
77288;BME280;66345;42.694;23.346;2023-03-13T04:03:14;95973.53;;;0.44;60.14
77288;BME280;66345;42.694;23.346;2023-03-13T04:05:40;95971.44;;;0.49;60.02
77288;BME280;66345;42.694;23.346;2023-03-13T04:08:06;95973.28;;;0.36;60.68
77288;BME280;66345;42.694;23.346;2023-03-13T04:10:31;95975.88;;;0.24;61.25
77288;BME280;66345;42.694;23.346;2023-03-13T04:12:57;95980.25;;;0.24;61.60
77288;BME280;66345;42.694;23.346;2023-03-13T04:15:22;95988.75;;;0.15;62.01
77288;BME280;66345;42.694;23.346;2023-03-13T04:17:48;95986.13;;;-0.20;63.60
77288;BME280;66345;42.694;23.346;2023-03-13T04:20:14;95993.78;;;-0.06;63.97
77288;BME280;66345;42.694;23.346;2023-03-13T04:22:40;96009.50;;;-0.08;64.28
77288;BME280;66345;42.694;23.346;2023-03-13T04:25:06;96012.34;;;-0.11;64.43
77288;BME280;66345;42.694;23.346;2023-03-13T04:27:33;95999.00;;;-0.06;63.84
77288;BME280;66345;42.694;23.346;2023-03-13T04:29:58;96012.97;;;-0.07;63.85
77288;BME280;66345;42.694;23.346;2023-03-13T04:32:24;96017.28;;;0.05;64.03
77288;BME280;66345;42.694;23.346;2023-03-13T04:34:49;96008.59;;;0.17;63.60
77288;BME280;66345;42.694;23.346;2023-03-13T04:37:15;96017.19;;;0.07;64.27
77288;BME280;66345;42.694;23.346;2023-03-13T04:39:40;96018.97;;;0.06;64.26
77288;BME280;66345;42.694;23.346;2023-03-13T04:42:06;96028.75;;;0.15;63.85
77288;BME280;66345;42.694;23.346;2023-03-13T04:44:33;96044.00;;;0.09;63.96
77288;BME280;66345;42.694;23.346;2023-03-13T04:46:58;96035.06;;;0.24;64.24
77288;BME280;66345;42.694;23.346;2023-03-13T04:49:23;96038.66;;;0.34;63.30
77288;BME280;66345;42.694;23.346;2023-03-13T04:51:49;96035.34;;;0.32;62.57
77288;BME280;66345;42.694;23.346;2023-03-13T04:54:14;96047.81;;;0.40;63.25
77288;BME280;66345;42.694;23.346;2023-03-13T04:56:40;96040.69;;;0.42;62.89
77288;BME280;66345;42.694;23.346;2023-03-13T04:59:06;96039.72;;;0.32;63.54
77288;BME280;66345;42.694;23.346;2023-03-13T05:01:31;96045.16;;;0.28;63.45
77288;BME280;66345;42.694;23.346;2023-03-13T05:03:56;96044.06;;;-0.04;63.88
77288;BME280;66345;42.694;23.346;2023-03-13T05:06:22;96049.97;;;-0.02;63.51
77288;BME280;66345;42.694;23.346;2023-03-13T05:08:47;96048.41;;;0.08;63.64
77288;BME280;66345;42.694;23.346;2023-03-13T05:11:13;96048.16;;;0.11;63.36
77288;BME280;66345;42.694;23.346;2023-03-13T05:13:38;96053.94;;;0.27;63.23
77288;BME280;66345;42.694;23.346;2023-03-13T05:16:04;96054.69;;;0.41;63.06
77288;BME280;66345;42.694;23.346;2023-03-13T05:18:29;96055.13;;;0.59;62.42
77288;BME280;66345;42.694;23.346;2023-03-13T05:20:55;96057.84;;;0.57;61.86
77288;BME280;66345;42.694;23.346;2023-03-13T05:23:20;96059.56;;;0.69;61.39
77288;BME280;66345;42.694;23.346;2023-03-13T05:25:46;96073.22;;;0.73;60.98
77288;BME280;66345;42.694;23.346;2023-03-13T05:28:11;96070.00;;;0.69;61.40
77288;BME280;66345;42.694;23.346;2023-03-13T05:30:37;96067.97;;;0.73;60.95
77288;BME280;66345;42.694;23.346;2023-03-13T05:33:02;96070.72;;;0.82;60.38
77288;BME280;66345;42.694;23.346;2023-03-13T05:35:28;96075.75;;;0.86;59.48
77288;BME280;66345;42.694;23.346;2023-03-13T05:37:53;96072.44;;;0.83;59.67
77288;BME280;66345;42.694;23.346;2023-03-13T05:40:19;96074.28;;;0.81;59.37
77288;BME280;66345;42.694;23.346;2023-03-13T05:42:44;96083.59;;;0.86;59.14
77288;BME280;66345;42.694;23.346;2023-03-13T05:45:10;96085.00;;;0.78;60.11
77288;BME280;66345;42.694;23.346;2023-03-13T05:47:36;96080.53;;;1.03;59.39
77288;BME280;66345;42.694;23.346;2023-03-13T05:50:04;96077.34;;;0.99;58.68
77288;BME280;66345;42.694;23.346;2023-03-13T05:52:30;96090.78;;;1.06;58.85
77288;BME280;66345;42.694;23.346;2023-03-13T05:54:55;96090.41;;;1.10;58.37
77288;BME280;66345;42.694;23.346;2023-03-13T05:57:21;96091.84;;;1.15;58.35
77288;BME280;66345;42.694;23.346;2023-03-13T05:59:46;96094.34;;;1.16;57.57
77288;BME280;66345;42.694;23.346;2023-03-13T06:02:12;96094.84;;;1.21;57.85
77288;BME280;66345;42.694;23.346;2023-03-13T06:04:37;96100.06;;;1.32;57.88
77288;BME280;66345;42.694;23.346;2023-03-13T06:07:02;96098.19;;;1.68;56.83
77288;BME280;66345;42.694;23.346;2023-03-13T06:09:28;96089.06;;;2.92;53.69
77288;BME280;66345;42.694;23.346;2023-03-13T06:11:54;96091.63;;;3.55;50.85
77288;BME280;66345;42.694;23.346;2023-03-13T06:14:19;96077.72;;;4.64;48.59
77288;BME280;66345;42.694;23.346;2023-03-13T06:16:45;96068.50;;;6.20;44.91
77288;BME280;66345;42.694;23.346;2023-03-13T06:19:10;96059.28;;;7.48;40.82
77288;BME280;66345;42.694;23.346;2023-03-13T06:21:36;96078.25;;;7.78;40.08
77288;BME280;66345;42.694;23.346;2023-03-13T06:24:02;96072.25;;;8.36;38.88
77288;BME280;66345;42.694;23.346;2023-03-13T06:26:27;96059.94;;;9.51;36.50
77288;BME280;66345;42.694;23.346;2023-03-13T06:28:53;96065.19;;;10.39;34.89
77288;BME280;66345;42.694;23.346;2023-03-13T06:31:19;96075.50;;;11.19;32.77
77288;BME280;66345;42.694;23.346;2023-03-13T06:33:44;96062.91;;;10.90;33.43
77288;BME280;66345;42.694;23.346;2023-03-13T06:36:10;96052.19;;;11.96;31.28
77288;BME280;66345;42.694;23.346;2023-03-13T06:38:35;96038.38;;;12.37;29.78
77288;BME280;66345;42.694;23.346;2023-03-13T06:41:00;96035.25;;;13.76;27.80
77288;BME280;66345;42.694;23.346;2023-03-13T06:43:26;96044.66;;;12.00;30.13
77288;BME280;66345;42.694;23.346;2023-03-13T06:45:52;96059.16;;;11.45;30.32
77288;BME280;66345;42.694;23.346;2023-03-13T06:48:18;96048.66;;;12.76;29.32
77288;BME280;66345;42.694;23.346;2023-03-13T06:50:44;96054.16;;;12.89;28.78
77288;BME280;66345;42.694;23.346;2023-03-13T06:53:18;96056.25;;;13.58;27.69
77288;BME280;66345;42.694;23.346;2023-03-13T06:55:44;96060.88;;;14.40;26.88
77288;BME280;66345;42.694;23.346;2023-03-13T06:58:10;96057.47;;;14.18;27.11
77288;BME280;66345;42.694;23.346;2023-03-13T07:00:36;96044.09;;;14.11;27.19
77288;BME280;66345;42.694;23.346;2023-03-13T07:03:03;96038.69;;;13.42;28.24
77288;BME280;66345;42.694;23.346;2023-03-13T07:05:29;96042.13;;;13.36;28.52
77288;BME280;66345;42.694;23.346;2023-03-13T07:07:54;96053.03;;;12.62;28.90
77288;BME280;66345;42.694;23.346;2023-03-13T07:10:20;96056.31;;;13.43;28.08
77288;BME280;66345;42.694;23.346;2023-03-13T07:12:45;96053.66;;;11.84;30.42
77288;BME280;66345;42.694;23.346;2023-03-13T07:15:10;96067.13;;;10.76;32.77
77288;BME280;66345;42.694;23.346;2023-03-13T07:17:36;96054.66;;;12.78;29.69
77288;BME280;66345;42.694;23.346;2023-03-13T07:20:03;96047.56;;;13.06;29.05
77288;BME280;66345;42.694;23.346;2023-03-13T07:22:35;96032.13;;;15.03;26.49
77288;BME280;66345;42.694;23.346;2023-03-13T07:25:01;96043.00;;;13.99;27.36
77288;BME280;66345;42.694;23.346;2023-03-13T07:27:27;96049.44;;;14.46;26.93
77288;BME280;66345;42.694;23.346;2023-03-13T07:29:52;96039.06;;;14.30;27.39
77288;BME280;66345;42.694;23.346;2023-03-13T07:32:18;96038.16;;;15.91;25.22
77288;BME280;66345;42.694;23.346;2023-03-13T07:34:43;96043.94;;;15.88;25.31
77288;BME280;66345;42.694;23.346;2023-03-13T07:37:10;96031.94;;;16.17;24.74
77288;BME280;66345;42.694;23.346;2023-03-13T07:39:36;96034.44;;;15.19;26.32
77288;BME280;66345;42.694;23.346;2023-03-13T07:42:02;96035.56;;;16.36;24.59
77288;BME280;66345;42.694;23.346;2023-03-13T07:44:27;96038.13;;;15.25;25.99
77288;BME280;66345;42.694;23.346;2023-03-13T07:46:52;96040.63;;;15.53;25.27
77288;BME280;66345;42.694;23.346;2023-03-13T07:49:18;96040.94;;;16.87;23.79
77288;BME280;66345;42.694;23.346;2023-03-13T07:51:43;96029.38;;;17.25;22.69
77288;BME280;66345;42.694;23.346;2023-03-13T07:54:12;96035.94;;;17.29;22.83
77288;BME280;66345;42.694;23.346;2023-03-13T07:56:37;96041.13;;;17.56;22.89
77288;BME280;66345;42.694;23.346;2023-03-13T07:59:03;96023.78;;;16.50;24.51
77288;BME280;66345;42.694;23.346;2023-03-13T08:01:29;96019.75;;;17.67;22.69
77288;BME280;66345;42.694;23.346;2023-03-13T08:03:54;96018.88;;;18.35;21.86
77288;BME280;66345;42.694;23.346;2023-03-13T08:06:26;96015.47;;;19.66;20.88
77288;BME280;66345;42.694;23.346;2023-03-13T08:08:56;96010.28;;;20.47;19.82
77288;BME280;66345;42.694;23.346;2023-03-13T08:11:23;96008.69;;;20.74;19.38
77288;BME280;66345;42.694;23.346;2023-03-13T08:13:50;96024.84;;;19.34;20.44
77288;BME280;66345;42.694;23.346;2023-03-13T08:16:20;96018.63;;;19.22;20.56
77288;BME280;66345;42.694;23.346;2023-03-13T08:18:49;96014.78;;;19.29;20.85
77288;BME280;66345;42.694;23.346;2023-03-13T08:21:20;96016.72;;;19.52;20.39
77288;BME280;66345;42.694;23.346;2023-03-13T08:23:46;96016.53;;;19.89;20.28
77288;BME280;66345;42.694;23.346;2023-03-13T08:26:17;96015.16;;;20.73;19.12
77288;BME280;66345;42.694;23.346;2023-03-13T08:28:44;96008.47;;;20.76;18.95
77288;BME280;66345;42.694;23.346;2023-03-13T08:33:36;96024.97;;;20.04;19.52
77288;BME280;66345;42.694;23.346;2023-03-13T08:38:44;96018.53;;;22.22;17.17
77288;BME280;66345;42.694;23.346;2023-03-13T08:41:12;96029.44;;;19.45;19.98
77288;BME280;66345;42.694;23.346;2023-03-13T08:43:40;96041.16;;;17.49;22.22
77288;BME280;66345;42.694;23.346;2023-03-13T08:46:06;96023.44;;;19.31;19.80
77288;BME280;66345;42.694;23.346;2023-03-13T08:48:31;96018.81;;;20.67;18.96
77288;BME280;66345;42.694;23.346;2023-03-13T08:51:09;96013.69;;;20.42;19.40
77288;BME280;66345;42.694;23.346;2023-03-13T08:53:36;96014.75;;;22.83;17.07
77288;BME280;66345;42.694;23.346;2023-03-13T08:56:03;96014.81;;;22.45;16.95
77288;BME280;66345;42.694;23.346;2023-03-13T08:58:30;96007.22;;;20.95;18.70
77288;BME280;66345;42.694;23.346;2023-03-13T09:01:10;96008.19;;;20.37;19.04
77288;BME280;66345;42.694;23.346;2023-03-13T09:03:36;96009.59;;;23.04;17.00
77288;BME280;66345;42.694;23.346;2023-03-13T09:06:03;96011.88;;;22.68;17.25
77288;BME280;66345;42.694;23.346;2023-03-13T09:08:29;96011.34;;;21.43;18.07
77288;BME280;66345;42.694;23.346;2023-03-13T09:11:01;96024.47;;;21.85;17.84
77288;BME280;66345;42.694;23.346;2023-03-13T09:13:27;96008.25;;;21.68;17.36
77288;BME280;66345;42.694;23.346;2023-03-13T09:16:05;96017.47;;;20.18;19.46
77288;BME280;66345;42.694;23.346;2023-03-13T09:18:31;96004.25;;;20.68;18.69
77288;BME280;66345;42.694;23.346;2023-03-13T09:20:57;96001.69;;;20.62;18.98
77288;BME280;66345;42.694;23.346;2023-03-13T09:23:23;95997.53;;;21.73;17.71
77288;BME280;66345;42.694;23.346;2023-03-13T09:25:52;95994.66;;;21.01;18.87
77288;BME280;66345;42.694;23.346;2023-03-13T09:28:18;95997.63;;;20.47;19.22
77288;BME280;66345;42.694;23.346;2023-03-13T09:30:43;96014.78;;;19.83;19.60
77288;BME280;66345;42.694;23.346;2023-03-13T09:33:09;96005.13;;;18.80;20.87
77288;BME280;66345;42.694;23.346;2023-03-13T09:35:37;95996.69;;;20.54;18.94
77288;BME280;66345;42.694;23.346;2023-03-13T09:38:03;96009.78;;;18.73;20.42
77288;BME280;66345;42.694;23.346;2023-03-13T09:40:36;96005.22;;;21.81;17.79
77288;BME280;66345;42.694;23.346;2023-03-13T09:43:02;95990.03;;;22.96;16.49
77288;BME280;66345;42.694;23.346;2023-03-13T09:45:42;95995.38;;;22.48;16.85
77288;BME280;66345;42.694;23.346;2023-03-13T09:51:00;95984.22;;;21.21;18.51
77288;BME280;66345;42.694;23.346;2023-03-13T09:53:42;95993.50;;;21.59;17.96
77288;BME280;66345;42.694;23.346;2023-03-13T09:56:23;95991.72;;;21.02;18.42
77288;BME280;66345;42.694;23.346;2023-03-13T09:58:53;95980.94;;;23.08;17.22
77288;BME280;66345;42.694;23.346;2023-03-13T10:01:25;95985.75;;;22.57;17.49
77288;BME280;66345;42.694;23.346;2023-03-13T10:04:00;95986.72;;;22.29;17.70
77288;BME280;66345;42.694;23.346;2023-03-13T10:06:33;95984.16;;;21.83;17.65
77288;BME280;66345;42.694;23.346;2023-03-13T10:08:59;95981.06;;;20.96;18.78
77288;BME280;66345;42.694;23.346;2023-03-13T10:14:12;95984.88;;;18.11;20.81
77288;BME280;66345;42.694;23.346;2023-03-13T10:16:50;95969.38;;;17.19;22.31
77288;BME280;66345;42.694;23.346;2023-03-13T10:19:18;95972.03;;;14.59;25.63
77288;BME280;66345;42.694;23.346;2023-03-13T10:21:50;95960.84;;;16.66;23.45
77288;BME280;66345;42.694;23.346;2023-03-13T10:24:32;95959.66;;;18.30;21.08
77288;BME280;66345;42.694;23.346;2023-03-13T10:26:58;95938.63;;;18.57;20.88
77288;BME280;66345;42.694;23.346;2023-03-13T12:30:32;95774.41;;;11.11;32.98
77288;BME280;66345;42.694;23.346;2023-03-13T12:35:43;95774.84;;;11.15;33.48
77288;BME280;66345;42.694;23.346;2023-03-13T12:38:21;95767.72;;;11.16;33.74
77288;BME280;66345;42.694;23.346;2023-03-13T12:43:42;95767.16;;;11.35;32.96
77288;BME280;66345;42.694;23.346;2023-03-13T13:00:30;95771.63;;;11.34;32.40
77288;BME280;66345;42.694;23.346;2023-03-13T13:06:10;95774.25;;;11.49;32.53
77288;BME280;66345;42.694;23.346;2023-03-13T13:08:39;95770.00;;;11.55;32.21
77288;BME280;66345;42.694;23.346;2023-03-13T13:16:53;95769.53;;;11.66;32.28
77288;BME280;66345;42.694;23.346;2023-03-13T13:24:54;95763.69;;;11.56;32.13
77288;BME280;66345;42.694;23.346;2023-03-13T13:32:46;95749.34;;;11.50;31.77
77288;BME280;66345;42.694;23.346;2023-03-13T13:37:41;95743.19;;;11.71;31.96
77288;BME280;66345;42.694;23.346;2023-03-13T13:43:02;95747.13;;;11.75;32.04
77288;BME280;66345;42.694;23.346;2023-03-13T13:53:52;95744.56;;;11.82;31.11
77288;BME280;66345;42.694;23.346;2023-03-13T13:56:33;95738.88;;;11.85;31.36
77288;BME280;66345;42.694;23.346;2023-03-13T14:01:45;95735.34;;;11.63;31.42
77288;BME280;66345;42.694;23.346;2023-03-13T14:04:29;95732.78;;;11.33;32.16
77288;BME280;66345;42.694;23.346;2023-03-13T14:07:00;95727.88;;;11.16;32.27
77288;BME280;66345;42.694;23.346;2023-03-13T14:09:32;95731.78;;;11.56;31.80
77288;BME280;66345;42.694;23.346;2023-03-13T14:11:59;95729.19;;;11.62;31.75
77288;BME280;66345;42.694;23.346;2023-03-13T14:14:24;95718.28;;;11.72;31.58
77288;BME280;66345;42.694;23.346;2023-03-13T14:16:55;95720.13;;;11.72;31.56
77288;BME280;66345;42.694;23.346;2023-03-13T14:19:28;95715.75;;;11.64;31.90
77288;BME280;66345;42.694;23.346;2023-03-13T14:22:08;95728.53;;;11.75;32.02
77288;BME280;66345;42.694;23.346;2023-03-13T14:24:35;95722.91;;;11.85;31.46
77288;BME280;66345;42.694;23.346;2023-03-13T14:27:13;95718.88;;;11.89;31.57
77288;BME280;66345;42.694;23.346;2023-03-13T14:29:39;95718.41;;;11.85;31.66
77288;BME280;66345;42.694;23.346;2023-03-13T14:32:04;95719.97;;;11.80;31.04
77288;BME280;66345;42.694;23.346;2023-03-13T14:34:30;95716.16;;;11.82;31.77
77288;BME280;66345;42.694;23.346;2023-03-13T14:37:00;95720.31;;;11.91;31.50
77288;BME280;66345;42.694;23.346;2023-03-13T14:42:11;95714.47;;;11.60;31.96
77288;BME280;66345;42.694;23.346;2023-03-13T14:44:37;95710.41;;;11.43;32.07
77288;BME280;66345;42.694;23.346;2023-03-13T14:47:07;95715.34;;;11.67;32.43
77288;BME280;66345;42.694;23.346;2023-03-13T14:49:33;95713.97;;;11.92;31.61
77288;BME280;66345;42.694;23.346;2023-03-13T14:52:21;95717.50;;;11.78;31.18
77288;BME280;66345;42.694;23.346;2023-03-13T14:55:00;95711.63;;;11.61;31.41
77288;BME280;66345;42.694;23.346;2023-03-13T14:57:29;95703.75;;;11.32;31.64
77288;BME280;66345;42.694;23.346;2023-03-13T15:00:29;95709.09;;;11.53;32.07
77288;BME280;66345;42.694;23.346;2023-03-13T15:05:41;95706.53;;;11.45;32.12
77288;BME280;66345;42.694;23.346;2023-03-13T15:08:19;95711.75;;;11.53;31.48
77288;BME280;66345;42.694;23.346;2023-03-13T15:10:47;95701.31;;;11.52;31.50
77288;BME280;66345;42.694;23.346;2023-03-13T15:13:34;95703.75;;;11.53;31.44
77288;BME280;66345;42.694;23.346;2023-03-13T15:16:02;95703.63;;;11.40;31.68
77288;BME280;66345;42.694;23.346;2023-03-13T15:18:30;95707.16;;;11.47;31.71
77288;BME280;66345;42.694;23.346;2023-03-13T15:21:19;95701.63;;;11.42;31.52
77288;BME280;66345;42.694;23.346;2023-03-13T15:26:23;95702.88;;;11.46;31.64
77288;BME280;66345;42.694;23.346;2023-03-13T15:28:49;95710.78;;;11.39;31.82
77288;BME280;66345;42.694;23.346;2023-03-13T15:31:14;95715.38;;;11.31;31.44
77288;BME280;66345;42.694;23.346;2023-03-13T15:33:41;95705.25;;;11.20;32.02
77288;BME280;66345;42.694;23.346;2023-03-13T15:36:08;95730.50;;;11.30;31.62
77288;BME280;66345;42.694;23.346;2023-03-13T15:38:34;95724.75;;;11.27;32.17
77288;BME280;66345;42.694;23.346;2023-03-13T15:40:59;95729.25;;;11.26;31.53
77288;BME280;66345;42.694;23.346;2023-03-13T15:43:25;95729.50;;;11.17;32.04
77288;BME280;66345;42.694;23.346;2023-03-13T15:45:52;95718.25;;;11.15;31.28
77288;BME280;66345;42.694;23.346;2023-03-13T15:48:22;95725.03;;;11.17;32.11
77288;BME280;66345;42.694;23.346;2023-03-13T15:50:56;95713.88;;;11.07;31.61
77288;BME280;66345;42.694;23.346;2023-03-13T15:53:28;95717.09;;;11.02;31.49
77288;BME280;66345;42.694;23.346;2023-03-13T15:55:57;95726.25;;;11.00;31.97
77288;BME280;66345;42.694;23.346;2023-03-13T15:58:23;95717.66;;;10.98;31.63
77288;BME280;66345;42.694;23.346;2023-03-13T16:00:49;95713.53;;;10.95;32.44
77288;BME280;66345;42.694;23.346;2023-03-13T16:03:23;95722.41;;;11.02;32.05
77288;BME280;66345;42.694;23.346;2023-03-13T16:05:50;95722.59;;;11.01;32.79
77288;BME280;66345;42.694;23.346;2023-03-13T16:08:22;95718.00;;;10.95;32.98
77288;BME280;66345;42.694;23.346;2023-03-13T16:10:49;95715.09;;;10.90;32.40
77288;BME280;66345;42.694;23.346;2023-03-13T16:13:15;95704.66;;;10.88;32.65
77288;BME280;66345;42.694;23.346;2023-03-13T16:15:41;95708.22;;;10.80;32.72
77288;BME280;66345;42.694;23.346;2023-03-13T16:18:12;95701.38;;;10.86;32.46
77288;BME280;66345;42.694;23.346;2023-03-13T16:20:40;95698.19;;;10.76;32.72
77288;BME280;66345;42.694;23.346;2023-03-13T16:23:05;95709.00;;;10.60;34.28